Terminal Aerodrome Forecast
Issued by NWS

Home | Current Version | Previous Version | Text Only | Print | Product List | Glossary On
Versions: 1 2 3 4 5 6 7 8 9 10 11 12 13
825
FTUS45 KRIW 210533
TAFRKS
TAF
KRKS 210533Z 2106/2206 15007KT P6SM SCT060 BKN110
     FM211100 19011KT P6SM SCT060 BKN100
     FM211700 20025G35KT P6SM SCT060 SCT110
     FM220300 19014G22KT P6SM SCT060 BKN090=

USA.gov is the U.S. government's official web portal to all federal, state and local government web resources and services.